sensor_id;sensor_type;location;lat;lon;timestamp;temperature;humidity
32107;DHT22;18622;51.998;10.440;2022-10-16T05:02:02;13.20;99.90
32107;DHT22;18622;51.998;10.440;2022-10-16T05:04:30;13.20;99.90
32107;DHT22;18622;51.998;10.440;2022-10-16T05:06:57;13.20;99.90
32107;DHT22;18622;51.998;10.440;2022-10-16T05:09:25;13.30;99.90
32107;DHT22;18622;51.998;10.440;2022-10-16T05:11:53;13.30;99.90
32107;DHT22;18622;51.998;10.440;2022-10-16T05:14:21;13.30;99.90
32107;DHT22;18622;51.998;10.440;2022-10-16T05:19:17;13.40;99.90
32107;DHT22;18622;51.998;10.440;2022-10-16T05:21:45;13.50;99.90
32107;DHT22;18622;51.998;10.440;2022-10-16T05:24:13;13.60;99.90
32107;DHT22;18622;51.998;10.440;2022-10-16T05:26:41;13.70;99.90
32107;DHT22;18622;51.998;10.440;2022-10-16T05:29:09;13.90;99.90
32107;DHT22;18622;51.998;10.440;2022-10-16T05:31:37;14.20;99.90
32107;DHT22;18622;51.998;10.440;2022-10-16T05:34:05;14.50;99.90
32107;DHT22;18622;51.998;10.440;2022-10-16T05:36:33;14.70;99.90
32107;DHT22;18622;51.998;10.440;2022-10-16T05:39:00;14.90;99.90
32107;DHT22;18622;51.998;10.440;2022-10-16T05:41:28;15.00;99.90
32107;DHT22;18622;51.998;10.440;2022-10-16T05:43:56;15.20;99.90
32107;DHT22;18622;51.998;10.440;2022-10-16T05:46:24;15.30;99.90
32107;DHT22;18622;51.998;10.440;2022-10-16T05:48:52;15.40;99.90
32107;DHT22;18622;51.998;10.440;2022-10-16T05:51:20;15.60;99.90
32107;DHT22;18622;51.998;10.440;2022-10-16T05:53:48;15.70;99.90
32107;DHT22;18622;51.998;10.440;2022-10-16T05:56:16;15.70;99.90
32107;DHT22;18622;51.998;10.440;2022-10-16T05:58:44;15.80;99.90
32107;DHT22;18622;51.998;10.440;2022-10-16T06:01:17;15.80;99.90
32107;DHT22;18622;51.998;10.440;2022-10-16T06:03:45;15.90;99.90
32107;DHT22;18622;51.998;10.440;2022-10-16T06:06:15;16.00;99.90
32107;DHT22;18622;51.998;10.440;2022-10-16T06:08:44;16.00;99.90
32107;DHT22;18622;51.998;10.440;2022-10-16T06:13:51;16.10;99.90
32107;DHT22;18622;51.998;10.440;2022-10-16T06:16:19;16.10;99.90
32107;DHT22;18622;51.998;10.440;2022-10-16T06:18:47;16.20;99.90
32107;DHT22;18622;51.998;10.440;2022-10-16T06:21:17;16.20;99.90
32107;DHT22;18622;51.998;10.440;2022-10-16T06:23:45;16.30;99.90
32107;DHT22;18622;51.998;10.440;2022-10-16T06:26:16;16.30;99.90
32107;DHT22;18622;51.998;10.440;2022-10-16T06:28:44;16.20;99.90
32107;DHT22;18622;51.998;10.440;2022-10-16T06:31:13;16.30;99.90
32107;DHT22;18622;51.998;10.440;2022-10-16T06:33:41;16.30;99.90
32107;DHT22;18622;51.998;10.440;2022-10-16T06:36:12;16.40;99.90
32107;DHT22;18622;51.998;10.440;2022-10-16T06:38:39;16.40;99.90
32107;DHT22;18622;51.998;10.440;2022-10-16T06:41:09;16.40;99.90
32107;DHT22;18622;51.998;10.440;2022-10-16T06:43:37;16.40;99.90
32107;DHT22;18622;51.998;10.440;2022-10-16T06:46:06;16.50;99.90
32107;DHT22;18622;51.998;10.440;2022-10-16T06:48:35;16.50;99.90
32107;DHT22;18622;51.998;10.440;2022-10-16T06:51:11;16.50;99.90
32107;DHT22;18622;51.998;10.440;2022-10-16T06:53:43;16.50;99.90
32107;DHT22;18622;51.998;10.440;2022-10-16T06:56:20;16.50;99.90
32107;DHT22;18622;51.998;10.440;2022-10-16T06:58:44;16.50;99.90
32107;DHT22;18622;51.998;10.440;2022-10-16T07:01:13;16.50;99.90
32107;DHT22;18622;51.998;10.440;2022-10-16T07:03:43;16.50;99.90
32107;DHT22;18622;51.998;10.440;2022-10-16T07:06:11;16.50;99.90
32107;DHT22;18622;51.998;10.440;2022-10-16T07:08:41;16.60;99.90
32107;DHT22;18622;51.998;10.440;2022-10-16T07:11:12;16.50;99.90
32107;DHT22;18622;51.998;10.440;2022-10-16T07:13:41;16.50;99.90
32107;DHT22;18622;51.998;10.440;2022-10-16T07:16:16;16.50;99.90
32107;DHT22;18622;51.998;10.440;2022-10-16T07:18:44;16.40;99.90
32107;DHT22;18622;51.998;10.440;2022-10-16T07:21:18;16.50;99.90
32107;DHT22;18622;51.998;10.440;2022-10-16T07:23:54;16.50;99.90
32107;DHT22;18622;51.998;10.440;2022-10-16T07:26:23;16.60;99.90
32107;DHT22;18622;51.998;10.440;2022-10-16T07:28:51;16.70;99.90
32107;DHT22;18622;51.998;10.440;2022-10-16T07:31:20;16.80;99.90
32107;DHT22;18622;51.998;10.440;2022-10-16T07:33:48;16.90;99.90
32107;DHT22;18622;51.998;10.440;2022-10-16T07:36:18;17.00;99.90
32107;DHT22;18622;51.998;10.440;2022-10-16T07:38:46;17.10;99.90
32107;DHT22;18622;51.998;10.440;2022-10-16T07:41:16;17.10;99.90
32107;DHT22;18622;51.998;10.440;2022-10-16T07:43:49;17.00;99.90
32107;DHT22;18622;51.998;10.440;2022-10-16T07:46:18;17.10;99.90
32107;DHT22;18622;51.998;10.440;2022-10-16T07:48:45;17.10;99.90
32107;DHT22;18622;51.998;10.440;2022-10-16T07:51:17;17.10;99.90
32107;DHT22;18622;51.998;10.440;2022-10-16T07:53:45;17.10;99.90
32107;DHT22;18622;51.998;10.440;2022-10-16T07:56:13;17.20;99.90
32107;DHT22;18622;51.998;10.440;2022-10-16T07:58:41;17.30;99.90
32107;DHT22;18622;51.998;10.440;2022-10-16T08:01:12;17.60;99.90
32107;DHT22;18622;51.998;10.440;2022-10-16T08:03:45;17.70;99.90
32107;DHT22;18622;51.998;10.440;2022-10-16T08:06:12;17.70;99.90
32107;DHT22;18622;51.998;10.440;2022-10-16T08:08:40;17.80;99.90
32107;DHT22;18622;51.998;10.440;2022-10-16T08:11:08;17.80;99.90
32107;DHT22;18622;51.998;10.440;2022-10-16T08:13:37;17.90;99.90
32107;DHT22;18622;51.998;10.440;2022-10-16T08:16:07;18.00;99.90
32107;DHT22;18622;51.998;10.440;2022-10-16T08:18:43;18.00;99.90
32107;DHT22;18622;51.998;10.440;2022-10-16T08:21:14;18.10;99.90
32107;DHT22;18622;51.998;10.440;2022-10-16T08:23:42;18.10;99.90
32107;DHT22;18622;51.998;10.440;2022-10-16T08:26:11;18.10;99.90
32107;DHT22;18622;51.998;10.440;2022-10-16T08:28:39;18.30;99.90
32107;DHT22;18622;51.998;10.440;2022-10-16T08:31:15;18.30;99.90
32107;DHT22;18622;51.998;10.440;2022-10-16T08:33:44;18.40;99.90
32107;DHT22;18622;51.998;10.440;2022-10-16T08:36:14;18.70;99.90
32107;DHT22;18622;51.998;10.440;2022-10-16T08:38:42;18.90;99.90
32107;DHT22;18622;51.998;10.440;2022-10-16T08:41:34;19.10;99.90
32107;DHT22;18622;51.998;10.440;2022-10-16T08:47:21;19.80;98.80
32107;DHT22;18622;51.998;10.440;2022-10-16T08:49:55;20.10;97.90
32107;DHT22;18622;51.998;10.440;2022-10-16T08:52:25;20.40;97.20
32107;DHT22;18622;51.998;10.440;2022-10-16T08:54:54;20.70;95.40
32107;DHT22;18622;51.998;10.440;2022-10-16T08:57:25;21.00;94.60
32107;DHT22;18622;51.998;10.440;2022-10-16T08:59:54;21.20;93.40
32107;DHT22;18622;51.998;10.440;2022-10-16T09:02:45;21.40;92.00
32107;DHT22;18622;51.998;10.440;2022-10-16T09:11:31;21.40;90.60
32107;DHT22;18622;51.998;10.440;2022-10-16T09:14:47;21.20;90.20
32107;DHT22;18622;51.998;10.440;2022-10-16T09:16:36;21.00;90.10
32107;DHT22;18622;51.998;10.440;2022-10-16T09:21:44;20.70;90.10
32107;DHT22;18622;51.998;10.440;2022-10-16T09:24:21;20.50;90.30
32107;DHT22;18622;51.998;10.440;2022-10-16T09:26:50;20.30;90.90
32107;DHT22;18622;51.998;10.440;2022-10-16T09:29:20;20.30;90.30
32107;DHT22;18622;51.998;10.440;2022-10-16T09:31:51;20.30;90.60
32107;DHT22;18622;51.998;10.440;2022-10-16T09:36:51;20.20;90.80
32107;DHT22;18622;51.998;10.440;2022-10-16T09:39:19;20.30;90.60
32107;DHT22;18622;51.998;10.440;2022-10-16T09:41:47;20.30;90.70
32107;DHT22;18622;51.998;10.440;2022-10-16T09:44:23;20.30;91.00
32107;DHT22;18622;51.998;10.440;2022-10-16T09:46:49;20.20;91.00
32107;DHT22;18622;51.998;10.440;2022-10-16T09:49:22;20.20;90.90
32107;DHT22;18622;51.998;10.440;2022-10-16T09:51:51;20.10;91.10
32107;DHT22;18622;51.998;10.440;2022-10-16T09:57:10;19.90;91.20
32107;DHT22;18622;51.998;10.440;2022-10-16T09:59:45;19.80;91.50
32107;DHT22;18622;51.998;10.440;2022-10-16T10:02:08;19.70;91.40
32107;DHT22;18622;51.998;10.440;2022-10-16T10:04:52;19.50;91.60
32107;DHT22;18622;51.998;10.440;2022-10-16T10:07:20;19.40;91.60
32107;DHT22;18622;51.998;10.440;2022-10-16T10:09:47;19.30;91.80
32107;DHT22;18622;51.998;10.440;2022-10-16T10:12:27;19.30;92.20
32107;DHT22;18622;51.998;10.440;2022-10-16T10:15:03;19.40;92.20
32107;DHT22;18622;51.998;10.440;2022-10-16T10:17:30;19.60;92.40
32107;DHT22;18622;51.998;10.440;2022-10-16T10:22:48;20.60;91.20
32107;DHT22;18622;51.998;10.440;2022-10-16T10:25:29;21.70;88.80
32107;DHT22;18622;51.998;10.440;2022-10-16T10:30:50;23.70;82.00
32107;DHT22;18622;51.998;10.440;2022-10-16T10:33:24;24.50;77.20
32107;DHT22;18622;51.998;10.440;2022-10-16T10:36:09;25.10;74.10
32107;DHT22;18622;51.998;10.440;2022-10-16T10:39:03;25.60;69.20
32107;DHT22;18622;51.998;10.440;2022-10-16T10:47:12;26.30;65.40
32107;DHT22;18622;51.998;10.440;2022-10-16T10:55:28;25.40;62.90
32107;DHT22;18622;51.998;10.440;2022-10-16T10:58:21;25.40;63.90
32107;DHT22;18622;51.998;10.440;2022-10-16T11:00:54;25.60;62.60
32107;DHT22;18622;51.998;10.440;2022-10-16T11:03:55;25.50;62.10
32107;DHT22;18622;51.998;10.440;2022-10-16T11:11:50;27.00;56.90
32107;DHT22;18622;51.998;10.440;2022-10-16T11:14:19;27.70;57.30
32107;DHT22;18622;51.998;10.440;2022-10-16T11:21:59;29.30;51.10
32107;DHT22;18622;51.998;10.440;2022-10-16T11:24:40;29.50;50.80
32107;DHT22;18622;51.998;10.440;2022-10-16T11:27:08;29.50;50.10
32107;DHT22;18622;51.998;10.440;2022-10-16T11:29:41;29.40;49.80
32107;DHT22;18622;51.998;10.440;2022-10-16T11:32:14;28.80;50.20
32107;DHT22;18622;51.998;10.440;2022-10-16T11:34:48;28.20;51.20
32107;DHT22;18622;51.998;10.440;2022-10-16T11:37:20;28.30;50.80
32107;DHT22;18622;51.998;10.440;2022-10-16T11:39:50;28.40;51.00
32107;DHT22;18622;51.998;10.440;2022-10-16T11:42:29;28.20;51.30
32107;DHT22;18622;51.998;10.440;2022-10-16T11:47:45;28.20;50.20
32107;DHT22;18622;51.998;10.440;2022-10-16T11:50:50;28.70;49.80
32107;DHT22;18622;51.998;10.440;2022-10-16T11:55:55;28.60;48.50
32107;DHT22;18622;51.998;10.440;2022-10-16T11:58:37;28.70;49.00
32107;DHT22;18622;51.998;10.440;2022-10-16T12:01:17;28.90;47.70
32107;DHT22;18622;51.998;10.440;2022-10-16T12:09:20;29.00;46.60
32107;DHT22;18622;51.998;10.440;2022-10-16T12:11:43;29.30;47.50
32107;DHT22;18622;51.998;10.440;2022-10-16T12:16:56;30.00;46.60
32107;DHT22;18622;51.998;10.440;2022-10-16T12:19:26;30.90;44.40
32107;DHT22;18622;51.998;10.440;2022-10-16T12:21:57;31.30;42.30
32107;DHT22;18622;51.998;10.440;2022-10-16T12:24:39;30.70;42.90
32107;DHT22;18622;51.998;10.440;2022-10-16T12:27:29;30.10;44.20
32107;DHT22;18622;51.998;10.440;2022-10-16T12:30:03;30.10;44.60
32107;DHT22;18622;51.998;10.440;2022-10-16T12:32:37;29.70;43.60
32107;DHT22;18622;51.998;10.440;2022-10-16T12:35:18;28.50;44.30
32107;DHT22;18622;51.998;10.440;2022-10-16T12:37:46;27.40;45.60
32107;DHT22;18622;51.998;10.440;2022-10-16T12:40:29;26.40;46.50
32107;DHT22;18622;51.998;10.440;2022-10-16T12:42:58;25.80;48.10
32107;DHT22;18622;51.998;10.440;2022-10-16T12:45:28;25.50;49.20
32107;DHT22;18622;51.998;10.440;2022-10-16T12:47:59;26.20;48.20
32107;DHT22;18622;51.998;10.440;2022-10-16T12:50:36;27.50;47.00
32107;DHT22;18622;51.998;10.440;2022-10-16T12:53:19;29.00;43.70
32107;DHT22;18622;51.998;10.440;2022-10-16T12:56:14;30.00;42.40
32107;DHT22;18622;51.998;10.440;2022-10-16T13:04:03;30.90;39.70
32107;DHT22;18622;51.998;10.440;2022-10-16T13:06:37;30.70;40.20
32107;DHT22;18622;51.998;10.440;2022-10-16T13:17:49;30.10;40.40
32107;DHT22;18622;51.998;10.440;2022-10-16T13:20:21;29.70;42.40
32107;DHT22;18622;51.998;10.440;2022-10-16T13:25:54;31.40;39.60
32107;DHT22;18622;51.998;10.440;2022-10-16T13:28:21;31.50;39.90
32107;DHT22;18622;51.998;10.440;2022-10-16T13:30:57;31.80;39.80
32107;DHT22;18622;51.998;10.440;2022-10-16T13:33:42;31.80;38.90
32107;DHT22;18622;51.998;10.440;2022-10-16T13:36:28;31.80;38.40
32107;DHT22;18622;51.998;10.440;2022-10-16T13:39:23;30.90;39.60
32107;DHT22;18622;51.998;10.440;2022-10-16T13:41:30;30.50;40.40
32107;DHT22;18622;51.998;10.440;2022-10-16T13:43:58;30.50;40.20
32107;DHT22;18622;51.998;10.440;2022-10-16T13:46:26;30.60;40.00
32107;DHT22;18622;51.998;10.440;2022-10-16T13:49:05;30.50;39.80
32107;DHT22;18622;51.998;10.440;2022-10-16T13:51:33;30.30;40.30
32107;DHT22;18622;51.998;10.440;2022-10-16T13:54:01;29.40;40.80
32107;DHT22;18622;51.998;10.440;2022-10-16T13:56:30;27.90;42.60
32107;DHT22;18622;51.998;10.440;2022-10-16T14:01:40;25.20;46.70
32107;DHT22;18622;51.998;10.440;2022-10-16T14:04:11;24.80;48.00
32107;DHT22;18622;51.998;10.440;2022-10-16T14:06:44;25.00;47.80
32107;DHT22;18622;51.998;10.440;2022-10-16T14:09:23;24.80;48.00
32107;DHT22;18622;51.998;10.440;2022-10-16T14:11:58;24.50;49.10
32107;DHT22;18622;51.998;10.440;2022-10-16T14:14:24;24.80;49.20
32107;DHT22;18622;51.998;10.440;2022-10-16T14:16:53;25.90;47.50
32107;DHT22;18622;51.998;10.440;2022-10-16T14:19:28;27.30;45.30
32107;DHT22;18622;51.998;10.440;2022-10-16T14:21:57;28.10;44.30
32107;DHT22;18622;51.998;10.440;2022-10-16T14:24:36;28.80;43.30
32107;DHT22;18622;51.998;10.440;2022-10-16T14:26:57;29.30;42.00
32107;DHT22;18622;51.998;10.440;2022-10-16T14:29:27;29.40;41.90
32107;DHT22;18622;51.998;10.440;2022-10-16T14:32:01;29.40;41.80
32107;DHT22;18622;51.998;10.440;2022-10-16T14:34:38;29.40;42.00
32107;DHT22;18622;51.998;10.440;2022-10-16T14:37:24;29.00;41.70
32107;DHT22;18622;51.998;10.440;2022-10-16T14:39:54;28.20;43.10
32107;DHT22;18622;51.998;10.440;2022-10-16T14:42:23;28.20;43.10
32107;DHT22;18622;51.998;10.440;2022-10-16T14:44:54;28.50;42.70
32107;DHT22;18622;51.998;10.440;2022-10-16T14:47:24;28.90;42.50
32107;DHT22;18622;51.998;10.440;2022-10-16T14:49:54;29.10;41.60
32107;DHT22;18622;51.998;10.440;2022-10-16T14:52:23;28.50;42.50
32107;DHT22;18622;51.998;10.440;2022-10-16T14:54:52;28.00;43.30
32107;DHT22;18622;51.998;10.440;2022-10-16T14:57:24;27.90;43.50
32107;DHT22;18622;51.998;10.440;2022-10-16T14:59:52;28.00;43.40
32107;DHT22;18622;51.998;10.440;2022-10-16T15:02:28;28.00;43.60
32107;DHT22;18622;51.998;10.440;2022-10-16T15:04:57;28.10;43.70
32107;DHT22;18622;51.998;10.440;2022-10-16T15:07:25;28.30;43.40
32107;DHT22;18622;51.998;10.440;2022-10-16T15:09:53;28.30;43.50
32107;DHT22;18622;51.998;10.440;2022-10-16T15:12:22;28.20;43.80
32107;DHT22;18622;51.998;10.440;2022-10-16T15:14:50;28.20;43.70
32107;DHT22;18622;51.998;10.440;2022-10-16T15:17:18;28.10;43.60
32107;DHT22;18622;51.998;10.440;2022-10-16T15:19:48;28.00;44.10
32107;DHT22;18622;51.998;10.440;2022-10-16T15:22:15;27.90;43.70
32107;DHT22;18622;51.998;10.440;2022-10-16T15:24:42;27.50;44.40
32107;DHT22;18622;51.998;10.440;2022-10-16T15:27:10;27.10;45.40
32107;DHT22;18622;51.998;10.440;2022-10-16T15:29:38;27.00;45.50
32107;DHT22;18622;51.998;10.440;2022-10-16T15:32:06;26.60;45.80
32107;DHT22;18622;51.998;10.440;2022-10-16T15:34:34;25.60;47.40
32107;DHT22;18622;51.998;10.440;2022-10-16T15:37:03;24.50;49.50
32107;DHT22;18622;51.998;10.440;2022-10-16T15:39:31;23.40;51.50
32107;DHT22;18622;51.998;10.440;2022-10-16T15:41:59;22.70;53.10
32107;DHT22;18622;51.998;10.440;2022-10-16T15:44:27;22.10;54.80
32107;DHT22;18622;51.998;10.440;2022-10-16T15:46:56;21.60;55.90
32107;DHT22;18622;51.998;10.440;2022-10-16T15:49:30;21.20;57.10
32107;DHT22;18622;51.998;10.440;2022-10-16T15:51:59;20.80;58.40
32107;DHT22;18622;51.998;10.440;2022-10-16T15:54:26;20.60;59.40
32107;DHT22;18622;51.998;10.440;2022-10-16T15:56:54;20.20;60.80
32107;DHT22;18622;51.998;10.440;2022-10-16T15:59:22;19.90;61.90
32107;DHT22;18622;51.998;10.440;2022-10-16T16:01:50;19.60;63.00
32107;DHT22;18622;51.998;10.440;2022-10-16T16:04:18;19.30;64.00
32107;DHT22;18622;51.998;10.440;2022-10-16T16:06:46;18.90;65.30
32107;DHT22;18622;51.998;10.440;2022-10-16T16:09:14;18.60;66.40
32107;DHT22;18622;51.998;10.440;2022-10-16T16:11:42;18.40;67.30
32107;DHT22;18622;51.998;10.440;2022-10-16T16:14:14;18.10;68.20
32107;DHT22;18622;51.998;10.440;2022-10-16T16:16:42;17.80;69.20
32107;DHT22;18622;51.998;10.440;2022-10-16T16:19:10;17.60;69.90
32107;DHT22;18622;51.998;10.440;2022-10-16T16:21:38;17.40;70.90
32107;DHT22;18622;51.998;10.440;2022-10-16T16:24:06;17.20;72.10
32107;DHT22;18622;51.998;10.440;2022-10-16T16:26:34;17.00;73.00
32107;DHT22;18622;51.998;10.440;2022-10-16T16:29:04;16.80;73.80
32107;DHT22;18622;51.998;10.440;2022-10-16T16:31:33;16.60;74.50
32107;DHT22;18622;51.998;10.440;2022-10-16T16:34:01;16.50;75.90
32107;DHT22;18622;51.998;10.440;2022-10-16T16:36:29;16.30;76.40
32107;DHT22;18622;51.998;10.440;2022-10-16T16:38:57;16.20;77.70
32107;DHT22;18622;51.998;10.440;2022-10-16T16:41:27;16.00;78.60
32107;DHT22;18622;51.998;10.440;2022-10-16T16:44:01;15.90;80.00
32107;DHT22;18622;51.998;10.440;2022-10-16T16:46:31;15.70;81.20
32107;DHT22;18622;51.998;10.440;2022-10-16T16:48:59;15.60;82.50
32107;DHT22;18622;51.998;10.440;2022-10-16T16:51:27;15.60;83.00
32107;DHT22;18622;51.998;10.440;2022-10-16T16:53:55;15.50;85.30
32107;DHT22;18622;51.998;10.440;2022-10-16T16:56:23;15.40;87.40
32107;DHT22;18622;51.998;10.440;2022-10-16T16:58:54;15.30;89.30
32107;DHT22;18622;51.998;10.440;2022-10-16T17:01:28;15.20;90.60
32107;DHT22;18622;51.998;10.440;2022-10-16T17:03:58;15.20;91.80
32107;DHT22;18622;51.998;10.440;2022-10-16T17:06:28;15.20;92.60
32107;DHT22;18622;51.998;10.440;2022-10-16T17:09:00;15.20;93.30
32107;DHT22;18622;51.998;10.440;2022-10-16T17:11:29;15.20;93.70
32107;DHT22;18622;51.998;10.440;2022-10-16T17:13:58;15.20;94.00
32107;DHT22;18622;51.998;10.440;2022-10-16T17:18:55;15.10;95.00
32107;DHT22;18622;51.998;10.440;2022-10-16T17:21:23;15.10;95.30
32107;DHT22;18622;51.998;10.440;2022-10-16T17:23:52;15.00;95.60
32107;DHT22;18622;51.998;10.440;2022-10-16T17:26:20;15.00;96.30
32107;DHT22;18622;51.998;10.440;2022-10-16T17:28:53;14.90;96.90
32107;DHT22;18622;51.998;10.440;2022-10-16T17:31:25;14.90;97.20
32107;DHT22;18622;51.998;10.440;2022-10-16T17:33:52;14.90;97.40
32107;DHT22;18622;51.998;10.440;2022-10-16T17:36:20;14.90;97.80
32107;DHT22;18622;51.998;10.440;2022-10-16T17:38:48;15.00;97.90
32107;DHT22;18622;51.998;10.440;2022-10-16T17:41:23;15.00;97.90
32107;DHT22;18622;51.998;10.440;2022-10-16T17:43:52;15.00;98.10
32107;DHT22;18622;51.998;10.440;2022-10-16T17:46:21;15.00;98.10
32107;DHT22;18622;51.998;10.440;2022-10-16T17:48:51;15.00;98.10
32107;DHT22;18622;51.998;10.440;2022-10-16T17:51:27;15.00;98.10
32107;DHT22;18622;51.998;10.440;2022-10-16T17:53:58;15.00;98.20
32107;DHT22;18622;51.998;10.440;2022-10-16T17:56:28;15.00;98.40
32107;DHT22;18622;51.998;10.440;2022-10-16T17:58:58;15.00;98.70
32107;DHT22;18622;51.998;10.440;2022-10-16T18:01:33;15.00;98.40
32107;DHT22;18622;51.998;10.440;2022-10-16T18:04:00;15.00;98.40
32107;DHT22;18622;51.998;10.440;2022-10-16T18:06:28;15.00;98.50
32107;DHT22;18622;51.998;10.440;2022-10-16T18:08:57;15.00;98.60
32107;DHT22;18622;51.998;10.440;2022-10-16T18:11:25;15.00;98.80
32107;DHT22;18622;51.998;10.440;2022-10-16T18:13:56;14.90;99.10
32107;DHT22;18622;51.998;10.440;2022-10-16T18:16:24;14.90;99.20
32107;DHT22;18622;51.998;10.440;2022-10-16T18:18:54;14.80;99.60
32107;DHT22;18622;51.998;10.440;2022-10-16T18:21:25;14.80;99.70
32107;DHT22;18622;51.998;10.440;2022-10-16T18:23:58;14.80;99.90
32107;DHT22;18622;51.998;10.440;2022-10-16T18:26:27;14.80;99.90
32107;DHT22;18622;51.998;10.440;2022-10-16T18:28:56;14.80;99.90
32107;DHT22;18622;51.998;10.440;2022-10-16T18:31:25;14.80;99.90
32107;DHT22;18622;51.998;10.440;2022-10-16T18:33:53;14.80;99.90
32107;DHT22;18622;51.998;10.440;2022-10-16T18:36:28;14.80;99.90
32107;DHT22;18622;51.998;10.440;2022-10-16T18:38:52;14.90;99.90
32107;DHT22;18622;51.998;10.440;2022-10-16T18:41:20;14.90;99.90
32107;DHT22;18622;51.998;10.440;2022-10-16T18:43:48;14.90;99.90
32107;DHT22;18622;51.998;10.440;2022-10-16T18:46:20;14.90;99.90
32107;DHT22;18622;51.998;10.440;2022-10-16T18:48:49;14.90;99.90
32107;DHT22;18622;51.998;10.440;2022-10-16T18:51:35;14.90;99.90
32107;DHT22;18622;51.998;10.440;2022-10-16T18:54:08;15.00;99.90
32107;DHT22;18622;51.998;10.440;2022-10-16T18:56:42;15.00;99.90
32107;DHT22;18622;51.998;10.440;2022-10-16T18:59:10;15.10;99.90
32107;DHT22;18622;51.998;10.440;2022-10-16T19:01:39;15.10;99.90
32107;DHT22;18622;51.998;10.440;2022-10-16T19:04:11;15.00;99.90
32107;DHT22;18622;51.998;10.440;2022-10-16T19:06:41;15.00;99.90
32107;DHT22;18622;51.998;10.440;2022-10-16T19:09:10;15.00;99.90
32107;DHT22;18622;51.998;10.440;2022-10-16T19:11:39;15.00;99.90
32107;DHT22;18622;51.998;10.440;2022-10-16T19:14:08;15.00;99.90
32107;DHT22;18622;51.998;10.440;2022-10-16T19:16:35;15.10;99.90
32107;DHT22;18622;51.998;10.440;2022-10-16T19:19:06;15.00;99.90
32107;DHT22;18622;51.998;10.440;2022-10-16T19:21:35;15.00;99.90
32107;DHT22;18622;51.998;10.440;2022-10-16T19:24:07;15.00;99.90
32107;DHT22;18622;51.998;10.440;2022-10-16T19:26:35;15.00;99.90
32107;DHT22;18622;51.998;10.440;2022-10-16T19:29:05;15.00;99.90
32107;DHT22;18622;51.998;10.440;2022-10-16T19:31:33;15.10;99.90
32107;DHT22;18622;51.998;10.440;2022-10-16T19:34:02;15.00;99.90
32107;DHT22;18622;51.998;10.440;2022-10-16T19:36:33;15.00;99.90
32107;DHT22;18622;51.998;10.440;2022-10-16T19:39:04;15.00;99.90
32107;DHT22;18622;51.998;10.440;2022-10-16T19:41:32;15.00;99.90
32107;DHT22;18622;51.998;10.440;2022-10-16T19:44:02;15.00;99.90
32107;DHT22;18622;51.998;10.440;2022-10-16T19:46:33;14.90;99.90
32107;DHT22;18622;51.998;10.440;2022-10-16T19:49:05;14.80;99.90
32107;DHT22;18622;51.998;10.440;2022-10-16T19:51:33;14.80;99.90
32107;DHT22;18622;51.998;10.440;2022-10-16T19:54:03;14.70;99.90
32107;DHT22;18622;51.998;10.440;2022-10-16T19:56:33;14.70;99.90
32107;DHT22;18622;51.998;10.440;2022-10-16T19:59:01;14.70;99.90
32107;DHT22;18622;51.998;10.440;2022-10-16T20:01:30;14.70;99.90
32107;DHT22;18622;51.998;10.440;2022-10-16T20:03:59;14.80;99.90
32107;DHT22;18622;51.998;10.440;2022-10-16T20:06:27;14.80;99.90
32107;DHT22;18622;51.998;10.440;2022-10-16T20:08:55;14.90;99.90
32107;DHT22;18622;51.998;10.440;2022-10-16T20:11:27;14.90;99.90
32107;DHT22;18622;51.998;10.440;2022-10-16T20:13:55;14.90;99.90
32107;DHT22;18622;51.998;10.440;2022-10-16T20:16:24;15.00;99.90
32107;DHT22;18622;51.998;10.440;2022-10-16T20:18:52;15.00;99.90
32107;DHT22;18622;51.998;10.440;2022-10-16T20:21:25;15.00;99.90
32107;DHT22;18622;51.998;10.440;2022-10-16T20:23:54;15.10;99.90
32107;DHT22;18622;51.998;10.440;2022-10-16T20:26:23;15.10;99.90
32107;DHT22;18622;51.998;10.440;2022-10-16T20:28:53;15.10;99.90
32107;DHT22;18622;51.998;10.440;2022-10-16T20:31:23;15.10;99.90
32107;DHT22;18622;51.998;10.440;2022-10-16T20:33:52;15.10;99.90
32107;DHT22;18622;51.998;10.440;2022-10-16T20:36:22;15.20;99.90
32107;DHT22;18622;51.998;10.440;2022-10-16T20:38:51;15.20;99.90
32107;DHT22;18622;51.998;10.440;2022-10-16T20:41:19;15.20;99.90
32107;DHT22;18622;51.998;10.440;2022-10-16T20:43:48;15.20;99.90
32107;DHT22;18622;51.998;10.440;2022-10-16T20:46:19;15.30;99.90
32107;DHT22;18622;51.998;10.440;2022-10-16T20:48:47;15.30;99.90
32107;DHT22;18622;51.998;10.440;2022-10-16T20:51:29;15.40;99.90
32107;DHT22;18622;51.998;10.440;2022-10-16T20:53:59;15.40;99.90
32107;DHT22;18622;51.998;10.440;2022-10-16T20:56:29;15.40;99.90
32107;DHT22;18622;51.998;10.440;2022-10-16T20:58:57;15.20;99.90
32107;DHT22;18622;51.998;10.440;2022-10-16T21:01:27;15.20;99.90
32107;DHT22;18622;51.998;10.440;2022-10-16T21:03:55;15.10;99.90
32107;DHT22;18622;51.998;10.440;2022-10-16T21:06:24;15.20;99.90
32107;DHT22;18622;51.998;10.440;2022-10-16T21:08:51;15.20;99.90
32107;DHT22;18622;51.998;10.440;2022-10-16T21:11:24;15.20;99.90
32107;DHT22;18622;51.998;10.440;2022-10-16T21:13:54;15.30;99.90
32107;DHT22;18622;51.998;10.440;2022-10-16T21:16:22;15.20;99.90
32107;DHT22;18622;51.998;10.440;2022-10-16T21:18:51;15.30;99.90
32107;DHT22;18622;51.998;10.440;2022-10-16T21:21:23;15.30;99.90
32107;DHT22;18622;51.998;10.440;2022-10-16T21:23:52;15.40;99.90
32107;DHT22;18622;51.998;10.440;2022-10-16T21:26:21;15.40;99.90
32107;DHT22;18622;51.998;10.440;2022-10-16T21:28:58;15.40;99.90
32107;DHT22;18622;51.998;10.440;2022-10-16T21:31:26;15.40;99.90
32107;DHT22;18622;51.998;10.440;2022-10-16T21:33:54;15.50;99.90
32107;DHT22;18622;51.998;10.440;2022-10-16T21:36:24;15.50;99.90
32107;DHT22;18622;51.998;10.440;2022-10-16T21:38:52;15.50;99.90
32107;DHT22;18622;51.998;10.440;2022-10-16T21:41:22;15.50;99.90
32107;DHT22;18622;51.998;10.440;2022-10-16T21:43:51;15.50;99.90
